Terminal Aerodrome Forecast
Issued by NWS

Home | Current Version | Previous Version | Text Only | Print | Product List | Glossary On
Versions: 1 2 3 4 5 6 7 8 9 10 11 12 13 14 15 16 17 18 19 20
000
FTUS42 KMLB 191100
TAFISM
TAF
KISM 191135Z 1912/2012 19005KT P6SM BKN011 BKN018
      TEMPO 1912/1914 BKN020
     FM191500 25008KT P6SM VCSH SCT025 BKN035
     FM200000 29007KT P6SM SCT012 BKN020=

USA.gov is the U.S. government's official web portal to all federal, state and local government web resources and services.